Flight Track Log - Related Links

Times and Time Zones

All times are in EDT time to prevent confusion due to time zone crossing. See the SWA2672 flight status page for this flight to view local times or setup timezone preferences in your user account.

Time Position Orientation Groundspeed Altitude Reporting Facility
EDT Latitude Longitude Course Direction KTS MPH feet Rate Location/Type
Sun 06:40:05 PM 33.9436 -118.4694 59° Northeast 188 216 2,000  Level Los Angeles Center
Sun 06:41:08 PM 33.9375 -118.5497 265° West 220 253 5,800 3,387 Climbing Los Angeles Center
Sun 06:42:09 PM 33.8981 -118.5958 224° Southwest 240 276 9,000 2,780 Climbing Los Angeles Center
Sun 06:43:11 PM 33.8986 -118.5139 90° East 278 320 11,500 2,129 Climbing Los Angeles Center
Sun 06:44:13 PM 33.9367 -118.4278 62° Northeast 324 373 13,400 2,323 Climbing Los Angeles Center
Sun 06:45:00 PM 34.2260 -117.8813 59° Northeast  Level FlightAware Approximate
Sun 06:45:15 PM 33.9942 -118.3264 56° Northeast 358 412 16,300  Level Los Angeles Center
Sun 06:46:18 PM 34.0547 -118.2194 56° Northeast 378 435 19,200 2,784 Climbing Los Angeles Center
Sun 06:47:20 PM 34.1303 -118.0853 56° Northeast 399 459 22,100 2,419 Climbing Los Angeles Center
Sun 06:48:22 PM 34.1958 -117.9697 56° Northeast 410 472 24,200 1,935 Climbing Los Angeles Center
Sun 06:49:24 PM 34.2642 -117.8481 56° Northeast 430 495 26,100 1,839 Climbing Los Angeles Center
Sun 06:50:26 PM 34.3331 -117.7233 56° Northeast 441 507 28,000 1,742 Climbing Los Angeles Center
Sun 06:51:28 PM 34.4083 -117.5886 56° Northeast 452 520 29,700 1,790 Climbing Los Angeles Center
Sun 06:52:30 PM 34.4794 -117.4581 57° Northeast 463 533 31,700 1,742 Climbing Los Angeles Center
Sun 06:53:32 PM 34.5497 -117.3311 56° Northeast 462 532 33,300 1,440 Climbing Los Angeles Center
Sun 06:54:35 PM 34.6194 -117.2039 56° Northeast 461 531 34,700 816 Climbing Los Angeles Center
Sun 06:55:37 PM 34.7039 -117.0500 56° Northeast 460 529 35,000 145 Climbing Los Angeles Center
Sun 06:56:39 PM 34.7728 -116.9217 57° Northeast 460 529 35,000  Level Los Angeles Center
Sun 06:57:41 PM 34.8439 -116.7931 56° Northeast 459 528 35,000  Level Los Angeles Center
Sun 06:58:43 PM 34.9119 -116.6650 57° Northeast 455 524 35,000  Level Los Angeles Center
Sun 06:59:45 PM 34.9864 -116.5411 54° Northeast 454 522 35,000  Level Los Angeles Center
Sun 07:00:47 PM 35.0922 -116.4125 45° Northeast 450 518 35,000  Level Los Angeles Center
Sun 07:01:49 PM 35.1797 -116.3028 46° Northeast 450 518 35,000  Level Los Angeles Center
Sun 07:02:52 PM 35.2661 -116.1933 46° Northeast 450 518 35,000  Level Los Angeles Center
Sun 07:03:54 PM 35.3536 -116.0839 46° Northeast 450 518 35,000  Level Los Angeles Center
Sun 07:04:56 PM 35.4458 -115.9678 46° Northeast 450 518 35,000  Level Los Angeles Center
Sun 07:05:58 PM 35.5339 -115.8572 46° Northeast 450 518 35,000  Level Los Angeles Center
Sun 07:07:00 PM 35.6400 -115.7278 45° Northeast 450 518 35,000  Level Los Angeles Center
Sun 07:08:02 PM 35.7261 -115.6156 47° Northeast 450 518 35,000  Level Los Angeles Center
Sun 07:09:04 PM 35.8264 -115.5242 36° Northeast 451 519 35,000  Level Los Angeles Center
Sun 07:10:06 PM 35.9292 -115.4397 34° Northeast 451 519 35,000  Level Los Angeles Center
Sun 07:11:09 PM 36.0322 -115.3547 34° Northeast 450 518 35,000  Level Los Angeles Center
Sun 07:12:11 PM 36.1553 -115.2536 34° Northeast 450 518 35,000  Level Los Angeles Center
Sun 07:13:13 PM 36.2575 -115.1675 34° Northeast 450 518 35,000  Level Los Angeles Center
Sun 07:14:15 PM 36.3597 -115.0819 34° Northeast 450 518 35,000  Level Los Angeles Center
Sun 07:15:17 PM 36.4628 -114.9964 34° Northeast 450 518 35,000  Level Los Angeles Center
Sun 07:16:19 PM 36.5867 -114.8911 34° Northeast 450 518 35,000  Level Los Angeles Center
Sun 07:17:21 PM 36.6900 -114.8044 34° Northeast 449 517 35,000  Level Los Angeles Center
Sun 07:18:23 PM 36.8000 -114.7131 34° Northeast 449 517 35,000  Level Los Angeles Center
Sun 07:19:26 PM 36.9047 -114.6264 33° Northeast 449 517 35,000  Level Los Angeles Center
Sun 07:20:28 PM 36.9986 -114.5456 35° Northeast 446 513 35,000  Level Los Angeles Center
Sun 07:21:30 PM 37.0981 -114.4564 36° Northeast 444 511 35,000  Level Los Angeles Center
Sun 07:22:32 PM 37.2217 -114.3525 34° Northeast 444 511 35,000  Level Los Angeles Center
Sun 07:23:34 PM 37.3231 -114.2647 35° Northeast 444 511 35,000  Level Los Angeles Center
Sun 07:24:36 PM 37.4347 -114.1703 34° Northeast 445 512 35,000  Level Los Angeles Center
Sun 07:25:38 PM 37.5375 -114.0817 34° Northeast 445 512 35,000  Level Los Angeles Center
Sun 07:26:40 PM 37.6400 -113.9931 34° Northeast 446 513 35,000  Level Los Angeles Center
Sun 07:27:12 PM 37.6817 -113.9583 33° Northeast 447 514 35,000  Level Salt Lake Center
Sun 07:28:13 PM 37.8047 -113.8508 35° Northeast 447 514 35,000  Level Salt Lake Center
Sun 07:29:15 PM 37.9081 -113.7589 35° Northeast 449 517 35,000  Level Salt Lake Center
Sun 07:30:17 PM 38.0111 -113.6692 34° Northeast 449 517 35,000  Level Salt Lake Center
Sun 07:31:18 PM 38.1153 -113.5775 35° Northeast 450 518 35,000 -439 Level Salt Lake Center
Sun 07:32:20 PM 38.2192 -113.4836 35° Northeast 455 524 34,100 -927 Descending Salt Lake Center
Sun 07:33:21 PM 38.3239 -113.3914 35° Northeast 455 524 33,100 -976 Descending Salt Lake Center
Sun 07:34:23 PM 38.4289 -113.3000 34° Northeast 455 524 32,100 -919 Descending Salt Lake Center
Sun 07:35:25 PM 38.5333 -113.2053 35° Northeast 456 525 31,200 -537 Descending Salt Lake Center
Sun 07:36:26 PM 38.6389 -113.1111 35° Northeast 457 526 31,000 -98 Descending Salt Lake Center
Sun 07:37:28 PM 38.7636 -112.9989 35° Northeast 457 526 31,000  Level Salt Lake Center
Sun 07:38:30 PM 38.8672 -112.9028 36° Northeast 458 527 31,000  Level Salt Lake Center
Sun 07:39:31 PM 38.9703 -112.8092 35° Northeast 458 527 31,000  Level Salt Lake Center
Sun 07:40:33 PM 39.0733 -112.7156 35° Northeast 457 526 31,000  Level Salt Lake Center
Sun 07:41:35 PM 39.1767 -112.6192 36° Northeast 456 525 31,000 -683 Level Salt Lake Center
Sun 07:42:36 PM 39.2750 -112.5311 35° Northeast 455 524 29,600 -2,000 Descending Salt Lake Center
Sun 07:43:38 PM 39.4039 -112.4467 27° Northeast 434 499 26,900 -2,390 Descending Salt Lake Center
Sun 07:44:39 PM 39.5106 -112.3864 24° Northeast 421 484 24,700 -2,098 Descending Salt Lake Center
Sun 07:45:41 PM 39.6131 -112.3267 24° Northeast 404 465 22,600 -2,032 Descending Salt Lake Center
Sun 07:46:43 PM 39.7125 -112.2692 24° Northeast 397 457 20,500 -1,951 Descending Salt Lake Center
Sun 07:47:44 PM 39.8072 -112.2147 24° Northeast 379 436 18,600 -2,080 Descending Salt Lake Center
Sun 07:47:58 PM 39.8400 -112.2083 North 370 426 17,900 -1,935 Descending Salt Lake Center
Sun 07:48:46 PM 39.8992 -112.1617 31° Northeast 364 419 16,600 -1,582 Descending Salt Lake Center
Sun 07:49:48 PM 39.9914 -112.1075 24° Northeast 364 419 15,000 -1,031 Descending Salt Lake Center
Sun 07:50:54 PM 40.1053 -112.0472 22° Northeast 360 414 14,400 -1,353 Descending Salt Lake Center
Sun 07:52:01 PM 40.2089 -111.9842 25° Northeast 356 410 12,000 -1,729 Descending Salt Lake Center
Sun 07:52:52 PM 40.2808 -111.9389 26° Northeast 350 403 11,000 -909 Descending Salt Lake Center
Sun 07:53:07 PM 40.3067 -111.9456 349° North 324 373 11,000  Level Salt Lake Center
Sun 07:53:54 PM 40.3700 -111.9311 10° North 323 372 11,000 -444 Level Salt Lake Center
Sun 07:54:55 PM 40.4508 -111.9353 358° North 291 335 10,200 -1,122 Descending Salt Lake Center
Sun 07:55:57 PM 40.5406 -111.9511 352° North 280 322 8,700 -1,317 Descending Salt Lake Center
Sun 07:56:58 PM 40.6042 -111.9575 356° North 213 245 7,500 -1,087 Descending Salt Lake Center
Sun 07:58:04 PM 40.6594 -111.9642 355° North 173 199 6,400 -919 Descending Salt Lake Center
Sun 07:59:02 PM 40.7006 -111.9647 359° North 154 177 5,600 -756 Descending Salt Lake Center
Sun 08:00:03 PM 40.7422 -111.9694 355° North 152 175 4,900 -683 Descending Salt Lake Center
Sun 08:01:05 PM 40.7836 -111.9739 355° North 152 175 4,200 -677 Descending Salt Lake Center
Sun 08:03:00 PM 40.7833 -111.9667 North  Level FlightAware Approximate

Login

Don't have an account? Register now (free) for customized features, flight alerts, and more!